createdAt,value
2017-12-23T00:00:39.633Z,99132.94
2017-12-23T00:03:07.473Z,99132.14
2017-12-23T00:05:34.989Z,99130.93
2017-12-23T00:08:02.494Z,99135.92
2017-12-23T00:10:30.699Z,99142.20
2017-12-23T00:12:58.213Z,99141.33
2017-12-23T00:15:25.746Z,99142.20
2017-12-23T00:17:53.479Z,99135.13
2017-12-23T00:20:21.039Z,99146.59
2017-12-23T00:22:48.551Z,99148.18
2017-12-23T00:25:16.117Z,99145.72
2017-12-23T00:27:43.637Z,99144.85
2017-12-23T00:30:11.145Z,99143.11
2017-12-23T00:32:38.977Z,99140.94
2017-12-23T00:35:06.500Z,99137.64
2017-12-23T00:37:34.073Z,99140.94
2017-12-23T00:40:01.827Z,99145.13
2017-12-23T00:42:29.385Z,99142.20
2017-12-23T00:44:57.868Z,99147.79
2017-12-23T00:47:25.713Z,99149.91
2017-12-23T00:49:53.216Z,99142.38
2017-12-23T00:52:20.754Z,99138.98
2017-12-23T00:54:48.496Z,99146.63
2017-12-23T00:57:16.001Z,99147.78
2017-12-23T00:59:43.511Z,99152.83
2017-12-23T01:02:11.200Z,99145.67
2017-12-23T01:04:38.804Z,99144.77
2017-12-23T01:07:06.314Z,99140.58
2017-12-23T01:09:33.908Z,99141.41
2017-12-23T01:12:01.442Z,99144.09
2017-12-23T01:14:28.944Z,99144.42
2017-12-23T01:16:56.524Z,99148.64
2017-12-23T01:19:24.026Z,99141.45
2017-12-23T01:21:51.580Z,99143.64
2017-12-23T01:24:19.113Z,99139.86
2017-12-23T01:26:46.612Z,99139.44
2017-12-23T01:29:14.164Z,99138.14
2017-12-23T01:31:42.127Z,99129.41
2017-12-23T01:34:09.676Z,99121.74
2017-12-23T01:36:37.180Z,99120.08
2017-12-23T01:39:04.910Z,99126.41
2017-12-23T01:41:32.470Z,99123.42
2017-12-23T01:43:59.978Z,99124.36
2017-12-23T01:46:27.519Z,99117.98
2017-12-23T01:48:55.046Z,99113.56
2017-12-23T01:51:22.545Z,99107.61
2017-12-23T01:53:50.073Z,99103.20
2017-12-23T01:56:17.624Z,99105.12
2017-12-23T01:58:45.122Z,99102.91
2017-12-23T02:01:12.816Z,99100.87
2017-12-23T02:03:40.316Z,99104.20
2017-12-23T02:06:07.813Z,99099.13
2017-12-23T02:08:35.625Z,99096.77
2017-12-23T02:11:03.186Z,99090.27
2017-12-23T02:13:31.154Z,99093.71
2017-12-23T02:15:58.892Z,99094.56
2017-12-23T02:18:26.397Z,99092.42
2017-12-23T02:20:53.934Z,99095.40
2017-12-23T02:23:21.470Z,99098.83
2017-12-23T02:25:49.003Z,99103.05
2017-12-23T02:28:16.500Z,99097.16
2017-12-23T02:30:44.276Z,99096.38
2017-12-23T02:33:11.778Z,99091.67
2017-12-23T02:35:39.600Z,99092.96
2017-12-23T02:38:07.539Z,99086.19
2017-12-23T02:40:35.537Z,99085.90
2017-12-23T02:43:03.094Z,99088.32
2017-12-23T02:45:30.730Z,99088.70
2017-12-23T02:47:58.240Z,99090.88
2017-12-23T02:50:25.809Z,99100.52
2017-12-23T02:52:53.541Z,99095.95
2017-12-23T02:55:21.098Z,99092.92
2017-12-23T02:57:48.757Z,99089.61
2017-12-23T03:00:16.324Z,99093.05
2017-12-23T03:02:43.829Z,99098.36
2017-12-23T03:05:11.341Z,99100.40
2017-12-23T03:07:38.911Z,99094.48
2017-12-23T03:10:06.450Z,99085.53
2017-12-23T03:12:33.958Z,99086.34
2017-12-23T03:15:01.644Z,99080.94
2017-12-23T03:17:29.228Z,99079.33
2017-12-23T03:19:56.733Z,99086.86
2017-12-23T03:22:24.448Z,99093.17
2017-12-23T03:24:51.957Z,99091.58
2017-12-23T03:27:19.471Z,99083.92
2017-12-23T03:29:47.227Z,99084.71
2017-12-23T03:32:14.736Z,99077.22
2017-12-23T03:34:42.245Z,99079.80
2017-12-23T03:37:09.789Z,99089.05
2017-12-23T03:39:37.298Z,99094.11
2017-12-23T03:42:04.805Z,99082.31
2017-12-23T03:44:32.684Z,99082.80
2017-12-23T03:47:00.193Z,99080.59
2017-12-23T03:49:27.700Z,99079.35
2017-12-23T03:51:55.300Z,99079.42
2017-12-23T03:54:22.808Z,99080.25
2017-12-23T03:56:50.322Z,99073.49
2017-12-23T03:59:17.870Z,99075.27
2017-12-23T04:01:45.387Z,99067.27
2017-12-23T04:04:12.905Z,99069.86
2017-12-23T04:06:41.324Z,99070.68
2017-12-23T04:09:08.831Z,99061.86
2017-12-23T04:11:36.334Z,99060.58
2017-12-23T04:14:03.896Z,99054.13
2017-12-23T04:16:31.409Z,99053.03
2017-12-23T04:18:58.922Z,99052.02
2017-12-23T04:21:26.705Z,99054.98
2017-12-23T04:23:54.237Z,99053.92
2017-12-23T04:26:21.824Z,99052.19
2017-12-23T04:28:49.760Z,99051.72
2017-12-23T04:31:17.269Z,99042.43
2017-12-23T04:33:44.772Z,99030.27
2017-12-23T04:36:13.694Z,99035.86
2017-12-23T04:38:41.228Z,99033.66
2017-12-23T04:41:08.781Z,99032.32
2017-12-23T04:43:36.321Z,99038.67
2017-12-23T04:46:03.888Z,99042.03
2017-12-23T04:48:32.357Z,99038.21
2017-12-23T04:51:00.141Z,99032.41
2017-12-23T04:53:27.701Z,99036.19
2017-12-23T04:55:55.209Z,99037.08
2017-12-23T04:58:23.044Z,99039.95
2017-12-23T05:00:50.561Z,99040.77
2017-12-23T05:03:18.070Z,99044.12
2017-12-23T05:05:45.781Z,99046.61
2017-12-23T05:08:13.360Z,99052.98
2017-12-23T05:10:42.008Z,99059.79
2017-12-23T05:13:09.547Z,99063.14
2017-12-23T05:15:37.061Z,99062.78
2017-12-23T05:18:04.576Z,99056.92
2017-12-23T05:20:32.176Z,99061.03
2017-12-23T05:22:59.676Z,99055.23
2017-12-23T05:25:27.278Z,99059.51
2017-12-23T05:27:55.030Z,99061.69
2017-12-23T05:30:22.552Z,99065.42
2017-12-23T05:32:50.073Z,99072.89
2017-12-23T05:35:17.737Z,99073.32
2017-12-23T05:37:45.256Z,99075.91
2017-12-23T05:40:12.761Z,99071.69
2017-12-23T05:42:40.332Z,99071.25
2017-12-23T05:45:07.866Z,99072.08
2017-12-23T05:47:35.374Z,99072.05
2017-12-23T05:50:02.917Z,99073.23
2017-12-23T05:52:30.425Z,99074.60
2017-12-23T05:54:57.933Z,99062.41
2017-12-23T05:57:25.490Z,99062.56
2017-12-23T05:59:52.997Z,99062.52
2017-12-23T06:02:20.497Z,99065.80
2017-12-23T06:04:48.337Z,99059.94
2017-12-23T06:07:15.899Z,99057.74
2017-12-23T06:09:43.404Z,99060.78
2017-12-23T06:12:10.964Z,99054.05
2017-12-23T06:17:11.182Z,99041.19
2017-12-23T06:19:38.729Z,99029.79
2017-12-23T06:22:06.267Z,99035.14
2017-12-23T06:24:33.804Z,99036.38
2017-12-23T06:27:01.326Z,99036.98
2017-12-23T06:29:28.846Z,99042.27
2017-12-23T06:31:56.609Z,99042.76
2017-12-23T06:34:24.166Z,99041.03
2017-12-23T06:36:51.730Z,99053.25
2017-12-23T06:39:19.385Z,99050.23
2017-12-23T06:41:46.970Z,99042.20
2017-12-23T06:44:14.505Z,99038.47
2017-12-23T06:46:42.268Z,99032.70
2017-12-23T06:49:09.834Z,99036.34
2017-12-23T06:51:37.345Z,99027.27
2017-12-23T06:54:05.173Z,99028.51
2017-12-23T06:56:32.811Z,99031.75
2017-12-23T06:59:00.321Z,99030.55
2017-12-23T07:01:28.009Z,99024.98
2017-12-23T07:03:55.521Z,99025.14
2017-12-23T07:06:23.037Z,99022.38
2017-12-23T07:08:50.612Z,99027.11
2017-12-23T07:11:18.118Z,99024.98
2017-12-23T07:13:45.626Z,99028.64
2017-12-23T07:16:13.764Z,99032.98
2017-12-23T07:18:41.273Z,99034.10
2017-12-23T07:21:08.821Z,99032.70
2017-12-23T07:23:36.524Z,99037.86
2017-12-23T07:26:04.029Z,99035.30
2017-12-23T07:28:31.544Z,99030.70
2017-12-23T07:30:59.093Z,99036.68
2017-12-23T07:33:26.606Z,99048.15
2017-12-23T07:35:54.169Z,99052.68
2017-12-23T07:38:22.035Z,99053.74
2017-12-23T07:40:49.556Z,99052.80
2017-12-23T07:43:17.078Z,99053.96
2017-12-23T07:45:44.646Z,99055.70
2017-12-23T07:48:12.170Z,99054.02
2017-12-23T07:50:39.732Z,99057.27
2017-12-23T07:53:07.376Z,99055.56
2017-12-23T07:55:34.897Z,99063.22
2017-12-23T07:58:02.409Z,99060.67
2017-12-23T08:00:30.273Z,99063.20
2017-12-23T08:02:57.782Z,99066.85
2017-12-23T08:05:25.310Z,99065.91
2017-12-23T08:07:53.148Z,99057.02
2017-12-23T08:10:20.653Z,99075.25
2017-12-23T08:12:48.166Z,99079.42
2017-12-23T08:15:15.936Z,99071.84
2017-12-23T08:17:43.496Z,99076.81
2017-12-23T08:20:11.006Z,99076.50
2017-12-23T08:22:38.545Z,99070.48
2017-12-23T08:25:06.062Z,99072.52
2017-12-23T08:27:33.569Z,99074.28
2017-12-23T08:30:01.292Z,99080.52
2017-12-23T08:32:28.893Z,99079.30
2017-12-23T08:34:56.410Z,99083.90
2017-12-23T08:37:24.175Z,99086.77
2017-12-23T08:39:51.688Z,99081.14
2017-12-23T08:42:19.204Z,99085.24
2017-12-23T08:44:46.749Z,99085.53
2017-12-23T08:47:14.256Z,99088.31
2017-12-23T08:49:41.788Z,99090.22
2017-12-23T08:52:09.333Z,99088.95
2017-12-23T08:54:37.714Z,99087.94
2017-12-23T08:57:05.224Z,99093.89
2017-12-23T08:59:33.149Z,99099.63
2017-12-23T09:02:00.696Z,99099.30
2017-12-23T09:04:28.293Z,99099.49
2017-12-23T09:06:56.125Z,99098.96
2017-12-23T09:09:23.673Z,99109.41
2017-12-23T09:11:51.193Z,99109.92
2017-12-23T09:14:19.098Z,99109.31
2017-12-23T09:16:46.610Z,99112.16
2017-12-23T09:19:14.154Z,99112.89
2017-12-23T09:21:41.840Z,99114.50
2017-12-23T09:24:09.345Z,99113.62
2017-12-23T09:26:37.223Z,99120.08
2017-12-23T09:29:04.967Z,99116.45
2017-12-23T09:31:32.503Z,99114.67
2017-12-23T09:34:00.013Z,99119.63
2017-12-23T09:36:27.726Z,99113.77
2017-12-23T09:38:55.250Z,99120.70
2017-12-23T09:41:22.769Z,99112.81
2017-12-23T09:43:51.291Z,99118.52
2017-12-23T09:46:18.855Z,99120.16
2017-12-23T09:48:46.384Z,99124.22
2017-12-23T09:51:14.227Z,99118.34
2017-12-23T09:53:41.786Z,99122.66
2017-12-23T09:56:09.345Z,99116.13
2017-12-23T09:58:37.108Z,99118.20
2017-12-23T10:01:04.668Z,99118.41
2017-12-23T10:03:32.178Z,99119.76
2017-12-23T10:05:59.992Z,99122.61
2017-12-23T10:08:27.938Z,99121.20
2017-12-23T10:10:55.929Z,99112.55
2017-12-23T10:13:23.673Z,99105.91
2017-12-23T10:15:51.221Z,99098.18
2017-12-23T10:18:18.739Z,99107.73
2017-12-23T10:20:46.471Z,99103.33
2017-12-23T10:23:14.034Z,99112.55
2017-12-23T10:25:41.543Z,99099.27
2017-12-23T10:28:09.456Z,99089.71
2017-12-23T10:30:36.970Z,99091.27
2017-12-23T10:33:04.677Z,99091.76
2017-12-23T10:35:33.290Z,99096.02
2017-12-23T10:38:00.803Z,99099.44
2017-12-23T10:40:28.315Z,99087.53
2017-12-23T10:42:55.889Z,99084.94
2017-12-23T10:45:23.397Z,99086.24
2017-12-23T10:47:51.875Z,99090.02
2017-12-23T10:50:19.465Z,99092.92
2017-12-23T10:52:46.973Z,99098.17
2017-12-23T10:55:14.522Z,99097.22
2017-12-23T10:57:42.081Z,99092.67
2017-12-23T11:00:09.605Z,99091.50
2017-12-23T11:02:37.231Z,99090.45
2017-12-23T11:05:04.882Z,99098.10
2017-12-23T11:07:32.433Z,99096.80
2017-12-23T11:10:00.011Z,99090.98
2017-12-23T11:12:27.754Z,99084.47
2017-12-23T11:14:55.277Z,99076.40
2017-12-23T11:17:22.824Z,99080.99
2017-12-23T11:19:50.553Z,99073.61
2017-12-23T11:22:18.166Z,99068.12
2017-12-23T11:24:45.686Z,99071.33
2017-12-23T11:27:13.333Z,99068.09
2017-12-23T11:29:40.994Z,99077.16
2017-12-23T11:32:08.710Z,99060.99
2017-12-23T11:34:36.496Z,99064.30
2017-12-23T11:37:04.593Z,99062.81
2017-12-23T11:39:32.254Z,99057.67
2017-12-23T11:41:59.916Z,99056.37
2017-12-23T11:44:27.577Z,99053.19
2017-12-23T11:46:55.168Z,99050.70
2017-12-23T11:49:22.900Z,99050.52
2017-12-23T11:51:50.460Z,99052.99
2017-12-23T11:54:17.971Z,99039.02
2017-12-23T11:56:45.789Z,99043.80
2017-12-23T11:59:13.374Z,99038.83
2017-12-23T12:01:41.003Z,99037.29
2017-12-23T12:04:08.577Z,99036.36
2017-12-23T12:06:36.194Z,99037.83
2017-12-23T12:09:03.709Z,99033.14
2017-12-23T12:11:31.553Z,99030.41
2017-12-23T12:13:59.149Z,99027.52
2017-12-23T12:16:26.687Z,99040.06
2017-12-23T12:18:54.421Z,99035.72
2017-12-23T12:21:21.994Z,99037.59
2017-12-23T12:23:49.652Z,99031.78
2017-12-23T12:26:17.414Z,99028.71
2017-12-23T12:28:44.973Z,99023.11
2017-12-23T12:31:12.565Z,99022.16
2017-12-23T12:33:40.555Z,99025.03
2017-12-23T12:36:08.244Z,99017.19
2017-12-23T12:38:35.988Z,99011.66
2017-12-23T12:41:03.689Z,99017.05
2017-12-23T12:43:31.351Z,99014.94
2017-12-23T12:45:59.011Z,99014.59
2017-12-23T12:48:26.749Z,99011.24
2017-12-23T12:50:54.263Z,99007.44
2017-12-23T12:53:21.793Z,99009.13
2017-12-23T12:55:50.170Z,99000.69
2017-12-23T12:58:17.731Z,99010.77
2017-12-23T13:00:45.287Z,99009.71
2017-12-23T13:03:13.460Z,99002.69
2017-12-23T13:05:42.043Z,99007.03
2017-12-23T13:08:09.884Z,99002.30
2017-12-23T13:10:37.684Z,99003.95
2017-12-23T13:13:06.160Z,98997.80
2017-12-23T13:15:33.886Z,98989.84
2017-12-23T13:18:01.684Z,98999.61
2017-12-23T13:20:29.456Z,98998.45
2017-12-23T13:22:57.292Z,99000.64
2017-12-23T13:25:25.387Z,99002.78
2017-12-23T13:27:54.598Z,98999.53
2017-12-23T13:30:22.451Z,99003.65
2017-12-23T13:32:50.681Z,99000.23
2017-12-23T13:35:18.386Z,99000.41
2017-12-23T13:37:46.046Z,98999.99
2017-12-23T13:40:14.322Z,98995.08
2017-12-23T13:42:41.881Z,99003.17
2017-12-23T13:45:09.532Z,98999.02
2017-12-23T13:47:37.817Z,98999.79
2017-12-23T13:50:05.788Z,99000.42
2017-12-23T13:52:34.269Z,99003.20
2017-12-23T13:55:02.134Z,98998.27
2017-12-23T13:57:29.773Z,98997.66
2017-12-23T13:59:57.558Z,98994.00
2017-12-23T14:02:25.527Z,98992.78
2017-12-23T14:04:53.292Z,98990.53
2017-12-23T14:07:21.055Z,98990.11
2017-12-23T14:09:48.824Z,98988.75
2017-12-23T14:12:16.582Z,98993.85
2017-12-23T14:14:44.449Z,98997.95
2017-12-23T14:17:12.035Z,98998.56
2017-12-23T14:19:39.829Z,98995.93
2017-12-23T14:22:08.255Z,98989.72
2017-12-23T14:24:36.260Z,98990.86
2017-12-23T14:27:04.088Z,98992.64
2017-12-23T14:29:31.601Z,98992.94
2017-12-23T14:31:59.512Z,98989.72
2017-12-23T14:34:27.295Z,98994.52
2017-12-23T14:36:54.993Z,98989.92
2017-12-23T14:39:22.871Z,98996.48
2017-12-23T14:41:50.377Z,98989.47
2017-12-23T14:44:18.128Z,98993.33
2017-12-23T14:46:45.861Z,98999.41
2017-12-23T14:49:13.552Z,98998.92
2017-12-23T14:51:41.112Z,98985.77
2017-12-23T14:54:08.670Z,98989.36
2017-12-23T14:56:36.401Z,98985.19
2017-12-23T14:59:03.922Z,98983.92
2017-12-23T15:01:31.711Z,98974.66
2017-12-23T15:03:59.225Z,98973.42
2017-12-23T15:06:26.773Z,98973.70
2017-12-23T15:08:54.740Z,98971.55
2017-12-23T15:11:22.331Z,98976.26
2017-12-23T15:13:49.859Z,98974.09
2017-12-23T15:16:17.889Z,98977.64
2017-12-23T15:18:45.357Z,98983.22
2017-12-23T15:21:12.876Z,98980.50
2017-12-23T15:23:40.607Z,98974.96
2017-12-23T15:26:08.161Z,98978.63
2017-12-23T15:28:35.666Z,98975.81
2017-12-23T15:31:03.556Z,98978.77
2017-12-23T15:33:31.064Z,98971.11
2017-12-23T15:35:58.608Z,98973.20
2017-12-23T15:38:26.176Z,98978.39
2017-12-23T15:40:53.681Z,98980.34
2017-12-23T15:43:21.186Z,98972.98
2017-12-23T15:45:49.021Z,98975.48
2017-12-23T15:48:16.713Z,98972.35
2017-12-23T15:50:44.226Z,98965.98
2017-12-23T15:53:12.006Z,98975.02
2017-12-23T15:55:39.511Z,98973.17
2017-12-23T15:58:07.049Z,98979.50
2017-12-23T16:00:34.605Z,98978.70
2017-12-23T16:03:02.118Z,98975.95
2017-12-23T16:05:29.634Z,98968.23
2017-12-23T16:07:57.578Z,98969.34
2017-12-23T16:10:25.082Z,98967.81
2017-12-23T16:12:52.593Z,98974.20
2017-12-23T16:15:20.313Z,98970.69
2017-12-23T16:17:47.835Z,98977.67
2017-12-23T16:20:15.389Z,98980.52
2017-12-23T16:22:42.939Z,98978.61
2017-12-23T16:25:10.446Z,98976.17
2017-12-23T16:27:37.963Z,98976.39
2017-12-23T16:30:05.974Z,98970.63
2017-12-23T16:32:33.594Z,98971.50
2017-12-23T16:35:01.193Z,98967.79
2017-12-23T16:37:29.107Z,98965.97
2017-12-23T16:39:56.614Z,98969.77
2017-12-23T16:42:24.137Z,98966.36
2017-12-23T16:44:51.946Z,98971.11
2017-12-23T16:47:19.665Z,98963.38
2017-12-23T16:49:47.325Z,98968.80
2017-12-23T16:52:15.114Z,98964.11
2017-12-23T16:54:42.672Z,98961.45
2017-12-23T16:57:10.187Z,98965.99
2017-12-23T16:59:37.768Z,98963.01
2017-12-23T17:02:05.327Z,98964.64
2017-12-23T17:04:32.888Z,98974.69
2017-12-23T17:07:00.542Z,98969.26
2017-12-23T17:09:28.046Z,98963.77
2017-12-23T17:11:55.555Z,98966.02
2017-12-23T17:14:23.223Z,98970.52
2017-12-23T17:16:50.792Z,98971.87
2017-12-23T17:19:18.342Z,98971.34
2017-12-23T17:21:46.096Z,98969.59
2017-12-23T17:24:13.605Z,98971.39
2017-12-23T17:26:41.172Z,98979.78
2017-12-23T17:29:20.662Z,98970.83
2017-12-23T17:31:48.165Z,98974.27
2017-12-23T17:34:15.780Z,98970.80
2017-12-23T17:36:43.542Z,98967.17
2017-12-23T17:39:11.059Z,98964.10
2017-12-23T17:41:38.560Z,98950.98
2017-12-23T17:44:06.129Z,98956.62
2017-12-23T17:46:33.633Z,98956.41
2017-12-23T17:49:01.237Z,98955.53
2017-12-23T17:51:28.806Z,98950.53
2017-12-23T17:53:56.450Z,98964.13
2017-12-23T17:56:24.023Z,98959.94
2017-12-23T17:58:51.662Z,98959.45
2017-12-23T18:01:19.236Z,98952.67
2017-12-23T18:03:46.830Z,98956.89
2017-12-23T18:06:14.541Z,98948.42
2017-12-23T18:08:42.221Z,98957.25
2017-12-23T18:11:09.845Z,98952.55
2017-12-23T18:13:37.648Z,98956.37
2017-12-23T18:16:05.411Z,98950.56
2017-12-23T18:18:33.278Z,98952.61
2017-12-23T18:21:01.758Z,98960.64
2017-12-23T18:23:29.537Z,98952.97
2017-12-23T18:25:57.389Z,98946.98
2017-12-23T18:28:25.254Z,98949.55
2017-12-23T18:30:53.031Z,98952.09
2017-12-23T18:33:20.644Z,98949.21
2017-12-23T18:35:48.751Z,98954.03
2017-12-23T18:38:16.618Z,98958.16
2017-12-23T18:40:44.480Z,98955.63
2017-12-23T18:43:12.196Z,98950.62
2017-12-23T18:45:39.908Z,98946.36
2017-12-23T18:48:07.481Z,98958.25
2017-12-23T18:50:35.118Z,98954.88
2017-12-23T18:53:02.791Z,98947.21
2017-12-23T18:55:30.349Z,98947.70
2017-12-23T18:57:58.095Z,98949.80
2017-12-23T19:00:25.775Z,98946.33
2017-12-23T19:02:53.436Z,98946.97
2017-12-23T19:05:21.406Z,98947.60
2017-12-23T19:07:48.937Z,98945.48
2017-12-23T19:10:16.453Z,98942.95
2017-12-23T19:12:44.177Z,98940.42
2017-12-23T19:15:11.688Z,98947.23
2017-12-23T19:17:39.509Z,98942.50
2017-12-23T19:20:07.271Z,98946.34
2017-12-23T19:22:34.832Z,98942.05
2017-12-23T19:25:02.404Z,98942.05
2017-12-23T19:27:30.627Z,98943.73
2017-12-23T19:29:58.429Z,98941.23
2017-12-23T19:32:26.091Z,98944.64
2017-12-23T19:34:53.900Z,98952.79
2017-12-23T19:37:21.469Z,98945.64
2017-12-23T19:39:49.075Z,98952.79
2017-12-23T19:42:16.918Z,98947.53
2017-12-23T19:44:44.608Z,98946.42
2017-12-23T19:47:12.333Z,98957.49
2017-12-23T19:49:39.966Z,98951.50
2017-12-23T19:52:07.499Z,98944.04
2017-12-23T19:54:35.043Z,98943.67
2017-12-23T19:57:02.852Z,98952.03
2017-12-23T19:59:30.397Z,98950.45
2017-12-23T20:01:58.029Z,98941.22
2017-12-23T20:04:26.006Z,98942.53
2017-12-23T20:06:53.557Z,98939.05
2017-12-23T20:09:21.114Z,98937.34
2017-12-23T20:11:48.879Z,98939.11
2017-12-23T20:14:16.474Z,98936.16
2017-12-23T20:16:43.996Z,98936.89
2017-12-23T20:19:11.756Z,98931.41
2017-12-23T20:21:39.281Z,98929.80
2017-12-23T20:24:06.789Z,98935.20
2017-12-23T20:26:34.361Z,98937.79
2017-12-23T20:29:02.099Z,98938.23
2017-12-23T20:31:29.726Z,98939.88
2017-12-23T20:33:57.599Z,98935.23
2017-12-23T20:36:25.121Z,98935.56
2017-12-23T20:38:52.655Z,98931.38
2017-12-23T20:41:20.541Z,98929.46
2017-12-23T20:43:48.068Z,98928.14
2017-12-23T20:46:15.574Z,98928.11
2017-12-23T20:48:43.421Z,98931.54
2017-12-23T20:51:10.979Z,98926.81
2017-12-23T20:53:38.510Z,98922.48
2017-12-23T20:56:06.275Z,98925.94
2017-12-23T20:58:33.831Z,98920.36
2017-12-23T21:01:01.344Z,98918.70
2017-12-23T21:03:29.172Z,98920.45
2017-12-23T21:05:56.693Z,98920.03
2017-12-23T21:08:24.198Z,98924.59
2017-12-23T21:10:51.740Z,98930.50
2017-12-23T21:13:19.237Z,98922.45
2017-12-23T21:15:46.798Z,98922.45
2017-12-23T21:18:14.400Z,98926.67
2017-12-23T21:20:41.905Z,98930.89
2017-12-23T21:23:09.423Z,98935.63
2017-12-23T21:25:37.084Z,98931.31
2017-12-23T21:28:04.850Z,98935.11
2017-12-23T21:30:32.414Z,98928.48
2017-12-23T21:33:00.101Z,98929.26
2017-12-23T21:35:27.627Z,98933.13
2017-12-23T21:37:55.252Z,98929.28
2017-12-23T21:40:23.156Z,98922.62
2017-12-23T21:42:51.637Z,98922.95
2017-12-23T21:45:19.197Z,98918.73
2017-12-23T21:47:46.897Z,98924.70
2017-12-23T21:50:14.401Z,98922.25
2017-12-23T21:52:41.975Z,98925.48
2017-12-23T21:55:09.534Z,98928.45
2017-12-23T21:57:37.048Z,98926.50
2017-12-23T22:00:04.557Z,98925.60
2017-12-23T22:02:32.212Z,98920.63
2017-12-23T22:04:59.873Z,98921.33
2017-12-23T22:07:27.384Z,98919.58
2017-12-23T22:09:54.957Z,98927.66
2017-12-23T22:12:23.684Z,98925.55
2017-12-23T22:14:51.235Z,98925.97
2017-12-23T22:17:18.814Z,98919.67
2017-12-23T22:19:47.251Z,98919.27
2017-12-23T22:22:14.773Z,98921.83
2017-12-23T22:24:42.497Z,98921.72
2017-12-23T22:27:10.006Z,98917.50
2017-12-23T22:29:37.519Z,98917.11
2017-12-23T22:32:05.153Z,98913.73
2017-12-23T22:34:32.714Z,98914.17
2017-12-23T22:37:00.236Z,98909.87
2017-12-23T22:39:28.157Z,98909.96
2017-12-23T22:41:55.677Z,98907.82
2017-12-23T22:44:23.189Z,98909.17
2017-12-23T22:46:50.745Z,98906.16
2017-12-23T22:49:18.253Z,98917.10
2017-12-23T22:51:45.758Z,98910.88
2017-12-23T22:54:13.320Z,98920.59
2017-12-23T22:56:40.822Z,98911.65
2017-12-23T22:59:08.329Z,98903.56
2017-12-23T23:01:36.265Z,98903.14
2017-12-23T23:04:04.253Z,98902.70
2017-12-23T23:06:31.758Z,98898.14
2017-12-23T23:08:59.317Z,98901.03
2017-12-23T23:11:26.823Z,98907.43
2017-12-23T23:13:54.336Z,98905.14
2017-12-23T23:16:21.878Z,98906.88
2017-12-23T23:18:49.546Z,98898.76
2017-12-23T23:21:17.072Z,98900.31
2017-12-23T23:23:45.041Z,98894.11
2017-12-23T23:26:12.546Z,98893.80
2017-12-23T23:28:40.056Z,98888.99
2017-12-23T23:31:07.762Z,98892.51
2017-12-23T23:33:35.270Z,98890.42
2017-12-23T23:36:02.783Z,98888.06
2017-12-23T23:38:30.464Z,98886.84
2017-12-23T23:40:58.040Z,98885.51
2017-12-23T23:43:25.615Z,98881.70
2017-12-23T23:45:53.174Z,98873.70
2017-12-23T23:48:20.683Z,98881.05
2017-12-23T23:50:48.186Z,98884.28
2017-12-23T23:53:15.733Z,98884.73
2017-12-23T23:55:43.237Z,98882.13
2017-12-23T23:58:10.746Z,98886.65
